Time;durP1;ratioP1;P1;durP2;ratioP2;P2;SDS_P1;SDS_P2;PMS_P1;PMS_P2;Temp;Humidity;BMP_temperature;BMP_pressure;BME280_temperature;BME280_humidity;BME280_pressure;Samples;Min_cycle;Max_cycle;Signal;HPM_P1;HPM_P2
2022/03/22 00:00:47;;;;;;;4.53;2.03;;;1.30;99.90;;;;;;4933876;29;20398;-84
2022/03/22 00:03:16;;;;;;;4.97;2.20;;;1.30;99.90;;;;;;4916345;29;20431;-84
2022/03/22 00:05:45;;;;;;;4.33;1.90;;;1.20;99.90;;;;;;4917623;29;20422;-84
2022/03/22 00:08:12;;;;;;;3.88;1.98;;;1.20;99.90;;;;;;4916374;29;20814;-85
2022/03/22 00:10:40;;;;;;;4.22;2.05;;;1.20;99.90;;;;;;4917573;29;20490;-84
2022/03/22 00:13:08;;;;;;;4.00;1.90;;;1.20;99.90;;;;;;4900600;29;20415;-84
2022/03/22 00:15:36;;;;;;;5.68;2.17;;;1.20;99.90;;;;;;4916478;29;20451;-85
2022/03/22 00:18:25;;;;;;;4.03;1.87;;;1.10;99.90;;;;;;4916195;29;20400;-85
2022/03/22 00:20:52;;;;;;;4.82;2.05;;;1.10;99.90;;;;;;4900571;29;20399;-84
2022/03/22 00:23:21;;;;;;;4.93;1.80;;;1.10;99.90;;;;;;4916166;29;20400;-85
2022/03/22 00:25:49;;;;;;;5.03;1.98;;;1.10;99.90;;;;;;4916166;29;20423;-85
2022/03/22 00:28:17;;;;;;;3.75;1.63;;;1.10;99.90;;;;;;4915878;29;20498;-85
2022/03/22 00:30:45;;;;;;;4.00;1.85;;;1.10;99.90;;;;;;4900459;29;20404;-85
2022/03/22 00:33:13;;;;;;;3.83;1.85;;;1.00;99.90;;;;;;4900334;29;20427;-85
2022/03/22 00:35:41;;;;;;;2.88;1.60;;;1.00;99.90;;;;;;4915867;29;20487;-84
2022/03/22 00:38:12;;;;;;;4.20;1.88;;;1.00;99.90;;;;;;4916709;29;20413;-84
2022/03/22 00:40:41;;;;;;;3.13;1.73;;;1.00;99.90;;;;;;4915800;29;20399;-85
2022/03/22 00:43:09;;;;;;;4.28;1.95;;;0.90;99.90;;;;;;4915880;29;20400;-84
2022/03/22 00:45:37;;;;;;;4.95;1.98;;;0.90;99.90;;;;;;4915711;29;20447;-85
2022/03/22 00:48:07;;;;;;;4.85;2.00;;;0.90;99.90;;;;;;4900182;29;20402;-85
2022/03/22 00:50:38;;;;;;;5.47;2.20;;;0.90;99.90;;;;;;4915637;29;20395;-85
2022/03/22 00:53:07;;;;;;;4.53;2.03;;;0.90;99.90;;;;;;4915514;29;20395;-85
2022/03/22 00:55:36;;;;;;;4.13;2.03;;;0.80;99.90;;;;;;4916573;29;20395;-85
2022/03/22 00:58:04;;;;;;;4.53;1.93;;;0.90;99.90;;;;;;4916676;29;20407;-85
2022/03/22 01:00:33;;;;;;;4.65;1.90;;;0.80;99.90;;;;;;4915492;29;20986;-85
2022/03/22 01:03:03;;;;;;;6.95;1.90;;;0.90;99.90;;;;;;4916503;29;20455;-85
2022/03/22 01:05:32;;;;;;;4.07;1.73;;;0.90;99.90;;;;;;4915121;29;20502;-84
2022/03/22 01:08:03;;;;;;;4.05;1.83;;;0.80;99.90;;;;;;4916437;29;20886;-84
2022/03/22 01:10:32;;;;;;;3.35;1.60;;;0.80;99.90;;;;;;4916390;29;20455;-84
2022/03/22 01:13:00;;;;;;;4.30;2.00;;;0.70;99.90;;;;;;4915063;29;20736;-85
2022/03/22 01:15:33;;;;;;;5.85;2.10;;;0.70;99.90;;;;;;4915142;29;20839;-85
2022/03/22 01:18:06;;;;;;;6.32;2.47;;;0.70;99.90;;;;;;4915190;29;20478;-85
2022/03/22 01:20:36;;;;;;;4.57;2.15;;;0.70;99.90;;;;;;4916535;29;20406;-85
2022/03/22 01:23:07;;;;;;;6.25;2.42;;;0.60;99.90;;;;;;4916190;29;20418;-85
2022/03/22 01:25:35;;;;;;;4.78;2.30;;;0.70;99.90;;;;;;4916152;29;20847;-85
2022/03/22 01:28:08;;;;;;;4.83;2.20;;;0.70;99.90;;;;;;4914828;29;20416;-85
2022/03/22 01:30:37;;;;;;;5.85;2.25;;;0.70;99.90;;;;;;4916127;29;20420;-85
2022/03/22 01:33:06;;;;;;;6.50;2.70;;;0.60;99.90;;;;;;4914706;29;20958;-84
2022/03/22 01:35:34;;;;;;;6.63;2.53;;;0.60;99.90;;;;;;4914888;29;20847;-84
2022/03/22 01:38:03;;;;;;;3.38;2.28;;;0.60;99.90;;;;;;4914798;29;20405;-85
2022/03/22 01:40:31;;;;;;;5.72;2.40;;;0.50;99.90;;;;;;4915923;29;20491;-85
2022/03/22 01:42:59;;;;;;;7.78;2.55;;;0.50;99.90;;;;;;4899103;29;20395;-85
2022/03/22 01:45:27;;;;;;;6.03;2.25;;;0.50;99.90;;;;;;4898898;29;20415;-84
2022/03/22 01:47:59;;;;;;;6.10;2.60;;;0.50;99.90;;;;;;4915777;29;20410;-85
2022/03/22 01:50:29;;;;;;;6.82;2.70;;;0.50;99.90;;;;;;4915477;29;20808;-85
2022/03/22 01:52:59;;;;;;;7.93;3.10;;;0.50;99.90;;;;;;4914243;29;20402;-85
2022/03/22 01:55:28;;;;;;;7.83;3.30;;;0.50;99.90;;;;;;4898917;29;20407;-85
2022/03/22 01:57:57;;;;;;;6.57;3.33;;;0.50;99.90;;;;;;4903727;29;20435;-85
2022/03/22 02:00:26;;;;;;;9.15;3.85;;;0.60;99.90;;;;;;4934927;29;20915;-84
2022/03/22 02:05:52;;;;;;;7.82;3.60;;;0.50;99.90;;;;;;4934327;29;20414;-84
2022/03/22 02:08:25;;;;;;;6.75;3.38;;;0.60;99.90;;;;;;4934499;29;20971;-84
2022/03/22 02:10:53;;;;;;;7.40;3.67;;;0.50;99.90;;;;;;4934352;29;20398;-84
2022/03/22 02:13:21;;;;;;;7.75;3.53;;;0.50;99.90;;;;;;4934409;29;20390;-85
2022/03/22 02:15:52;;;;;;;9.98;4.40;;;0.40;99.90;;;;;;4934276;29;20885;-85
2022/03/22 02:18:20;;;;;;;7.80;4.03;;;0.40;99.90;;;;;;4932873;29;20424;-85
2022/03/22 02:20:48;;;;;;;10.13;4.57;;;0.40;99.90;;;;;;4933157;29;20409;-85
2022/03/22 02:23:46;;;;;;;7.60;3.60;;;0.40;99.90;;;;;;4933047;29;20437;-85
2022/03/22 02:26:14;;;;;;;10.10;4.10;;;0.40;99.90;;;;;;4934387;29;20417;-85
2022/03/22 02:28:43;;;;;;;9.25;4.63;;;0.40;99.90;;;;;;4964772;28;20390;-84
2022/03/22 02:31:13;;;;;;;9.52;4.68;;;0.50;99.90;;;;;;4933441;29;21309;-85
2022/03/22 02:33:45;;;;;;;9.10;4.60;;;0.40;99.90;;;;;;4934151;29;20390;-85
2022/03/22 02:36:13;;;;;;;9.90;4.72;;;0.30;99.90;;;;;;4934226;29;20882;-85
2022/03/22 02:38:41;;;;;;;13.67;5.53;;;0.30;99.90;;;;;;4948681;28;20493;-84
2022/03/22 02:41:22;;;;;;;10.50;5.38;;;0.30;99.90;;;;;;4969063;28;20412;-85
2022/03/22 02:43:50;;;;;;;9.83;4.70;;;0.20;99.90;;;;;;4938189;29;20428;-85
2022/03/22 02:46:19;;;;;;;10.15;4.90;;;0.10;99.90;;;;;;4952446;29;21128;-85
2022/03/22 02:48:47;;;;;;;8.48;4.65;;;0.10;99.90;;;;;;4952379;29;20456;-84
2022/03/22 02:51:15;;;;;;;9.07;5.32;;;0.10;99.90;;;;;;4952453;29;20412;-84
2022/03/22 02:53:43;;;;;;;10.55;5.07;;;0.10;99.90;;;;;;4937906;29;20461;-85
2022/03/22 02:56:10;;;;;;;9.30;5.10;;;0.00;99.90;;;;;;4952702;28;20409;-84
2022/03/22 02:58:39;;;;;;;11.23;5.22;;;0.00;99.90;;;;;;5278674;23;20473;-86
2022/03/22 03:01:07;;;;;;;10.15;5.32;;;0.00;99.90;;;;;;4938487;29;20394;-86
2022/03/22 03:03:35;;;;;;;11.70;5.68;;;0.00;99.90;;;;;;4926930;29;20402;-87
2022/03/22 03:06:02;;;;;;;11.50;5.85;;;0.00;99.90;;;;;;4937281;29;20410;-87
2022/03/22 03:08:31;;;;;;;13.03;5.93;;;0.00;99.90;;;;;;4921304;29;20402;-86
2022/03/22 03:10:59;;;;;;;11.13;5.47;;;0.00;99.90;;;;;;4937000;29;20405;-87
2022/03/22 03:14:38;;;;;;;12.32;5.90;;;0.00;99.90;;;;;;4921345;29;20410;-87
2022/03/22 03:16:14;;;;;;;13.20;6.15;;;0.00;99.90;;;;;;4936607;29;20918;-87
2022/03/22 03:18:42;;;;;;;11.77;6.03;;;0.00;99.90;;;;;;4928401;29;20420;-85
2022/03/22 03:21:10;;;;;;;11.90;6.60;;;-0.10;99.90;;;;;;4940426;29;20428;-86
2022/03/22 03:23:38;;;;;;;13.68;6.57;;;-0.10;99.90;;;;;;4955990;29;20407;-86
2022/03/22 03:26:06;;;;;;;12.33;6.77;;;-0.10;99.90;;;;;;4940080;29;20412;-86
2022/03/22 03:28:34;;;;;;;12.38;6.72;;;-0.10;99.90;;;;;;4939927;29;20403;-88
2022/03/22 03:31:01;;;;;;;13.15;6.93;;;-0.10;99.90;;;;;;4955923;29;20396;-87
2022/03/22 03:33:29;;;;;;;14.00;7.47;;;-0.10;99.90;;;;;;4954357;29;20412;-86
2022/03/22 03:35:57;;;;;;;14.98;6.80;;;-0.20;99.90;;;;;;4937916;29;20411;-87
2022/03/22 03:38:25;;;;;;;13.40;7.07;;;-0.20;99.90;;;;;;4936532;29;20429;-88
2022/03/22 03:43:39;;;;;;;12.73;6.78;;;-0.20;99.90;;;;;;4952361;29;20410;-88
2022/03/22 03:48:53;;;;;;;12.25;7.13;;;-0.20;99.90;;;;;;4937443;29;20867;-86
2022/03/22 03:51:21;;;;;;;13.52;6.78;;;-0.20;99.90;;;;;;4955735;28;20452;-87
2022/03/22 03:53:48;;;;;;;12.73;6.70;;;-0.30;99.90;;;;;;4939557;29;20491;-88
2022/03/22 03:56:16;;;;;;;14.40;7.90;;;-0.20;99.90;;;;;;4952176;29;20573;-87
2022/03/22 03:58:44;;;;;;;15.27;8.07;;;-0.20;99.90;;;;;;4920417;29;20492;-86
2022/03/22 04:01:12;;;;;;;15.85;8.50;;;-0.10;99.90;;;;;;4926526;29;20496;-88
2022/03/22 04:03:40;;;;;;;15.25;8.65;;;-0.20;99.90;;;;;;4935815;29;20402;-89
2022/03/22 04:06:08;;;;;;;15.57;7.90;;;-0.20;99.90;;;;;;4936975;29;21020;-87
2022/03/22 04:08:36;;;;;;;15.45;7.75;;;-0.20;99.90;;;;;;4935855;29;20402;-89
2022/03/22 04:11:03;;;;;;;12.35;7.32;;;-0.30;99.90;;;;;;4936092;29;20497;-90
2022/03/22 04:13:31;;;;;;;15.25;7.68;;;-0.10;99.90;;;;;;4935738;29;20393;-88
2022/03/22 04:15:58;;;;;;;16.00;8.13;;;-0.10;99.90;;;;;;4935957;29;20409;-87
2022/03/22 04:18:26;;;;;;;15.93;8.48;;;-0.10;99.90;;;;;;4936867;29;20838;-84
2022/03/22 04:20:54;;;;;;;14.63;8.13;;;-0.20;99.90;;;;;;4935614;29;20482;-86
2022/03/22 04:23:22;;;;;;;14.55;9.00;;;-0.10;99.90;;;;;;4935814;29;20410;-89
2022/03/22 04:25:49;;;;;;;14.35;8.50;;;0.00;99.90;;;;;;4936743;29;20414;-86
2022/03/22 04:33:51;;;;;;;13.87;8.00;;;-0.20;99.90;;;;;;4935548;29;20437;-89
2022/03/22 04:36:19;;;;;;;12.75;7.95;;;-0.20;99.90;;;;;;4935583;29;20783;-88
2022/03/22 04:38:47;;;;;;;14.02;8.20;;;-0.10;99.90;;;;;;4935462;29;20398;-87
2022/03/22 04:41:14;;;;;;;16.00;8.90;;;-0.10;99.90;;;;;;4936489;29;20455;-89
2022/03/22 04:43:42;;;;;;;15.98;8.63;;;-0.10;99.90;;;;;;4919663;29;20960;-88
2022/03/22 04:46:10;;;;;;;15.43;8.68;;;-0.10;99.90;;;;;;4935170;29;20424;-89
2022/03/22 04:48:41;;;;;;;15.38;8.95;;;-0.10;99.90;;;;;;4942959;29;20416;-84
2022/03/22 04:56:47;;;;;;;17.27;10.63;;;-0.10;99.90;;;;;;4940474;28;20445;-87
2022/03/22 04:59:24;;;;;;;19.23;10.05;;;-0.10;99.90;;;;;;4935735;29;20488;-88
2022/03/22 05:01:51;;;;;;;18.70;9.68;;;-0.10;99.90;;;;;;4934520;29;20567;-88
2022/03/22 05:04:20;;;;;;;19.38;10.45;;;-0.20;99.90;;;;;;4936188;29;20489;-88
2022/03/22 05:06:47;;;;;;;19.63;10.23;;;-0.10;99.90;;;;;;4934982;29;20422;-88
2022/03/22 05:09:15;;;;;;;18.83;10.38;;;-0.20;99.90;;;;;;4934982;29;20394;-88
2022/03/22 05:11:44;;;;;;;22.45;11.63;;;-0.10;99.90;;;;;;4940605;29;20414;-87
2022/03/22 05:14:11;;;;;;;30.17;20.05;;;-0.10;99.90;;;;;;4935996;29;20404;-88
2022/03/22 05:16:39;;;;;;;20.00;11.45;;;-0.10;99.90;;;;;;4934791;29;20488;-87
2022/03/22 05:19:07;;;;;;;19.13;10.30;;;-0.10;99.90;;;;;;4934739;29;20400;-88
2022/03/22 05:21:34;;;;;;;17.13;9.18;;;-0.20;99.90;;;;;;4934697;29;20401;-87
2022/03/22 05:24:02;;;;;;;17.75;9.85;;;-0.20;99.90;;;;;;4934685;29;20398;-89
2022/03/22 05:26:30;;;;;;;17.05;9.70;;;-0.10;99.90;;;;;;4934513;29;20438;-88
2022/03/22 05:28:57;;;;;;;18.05;10.07;;;-0.20;99.90;;;;;;4934585;29;20398;-88
2022/03/22 05:31:25;;;;;;;17.30;10.43;;;-0.20;99.90;;;;;;4934379;29;20413;-88
2022/03/22 05:33:53;;;;;;;20.70;10.73;;;-0.10;99.90;;;;;;4918690;29;20754;-87
2022/03/22 05:36:21;;;;;;;19.40;10.82;;;-0.20;99.90;;;;;;4935477;29;20402;-86
2022/03/22 05:38:49;;;;;;;18.80;10.63;;;-0.20;99.90;;;;;;4945140;29;20412;-88
2022/03/22 05:41:16;;;;;;;18.08;10.80;;;-0.10;99.90;;;;;;4937579;29;20405;-87
2022/03/22 05:43:44;;;;;;;19.98;11.43;;;-0.20;99.90;;;;;;4937484;29;20895;-88
2022/03/22 05:46:15;;;;;;;18.02;10.48;;;-0.20;99.90;;;;;;4953195;29;20416;-88
2022/03/22 05:48:44;;;;;;;18.52;10.57;;;-0.20;99.90;;;;;;4953587;29;20424;-87
2022/03/22 05:51:11;;;;;;;18.45;10.95;;;-0.20;99.90;;;;;;4953362;29;20461;-87
2022/03/22 05:53:39;;;;;;;21.08;12.30;;;-0.10;99.90;;;;;;4937500;29;20401;-89
2022/03/22 05:56:07;;;;;;;19.15;11.00;;;-0.10;99.90;;;;;;4937539;29;20487;-88
2022/03/22 05:58:34;;;;;;;19.80;11.70;;;-0.10;99.90;;;;;;4942989;29;20401;-88
2022/03/22 06:01:02;;;;;;;19.83;12.10;;;-0.10;99.90;;;;;;4919236;29;20432;-89
2022/03/22 06:03:30;;;;;;;23.60;13.70;;;-0.10;99.90;;;;;;4952083;29;20441;-88
2022/03/22 06:05:58;;;;;;;17.90;10.43;;;0.00;99.90;;;;;;4927455;29;20413;-89
2022/03/22 06:08:25;;;;;;;18.20;11.02;;;0.00;99.90;;;;;;4933967;29;20401;-88
2022/03/22 06:10:53;;;;;;;19.63;11.52;;;0.00;99.90;;;;;;4917463;29;20461;-88
2022/03/22 06:13:20;;;;;;;22.35;13.73;;;0.00;99.90;;;;;;4933352;29;20401;-88
2022/03/22 06:15:50;;;;;;;19.33;11.77;;;0.10;99.90;;;;;;4918112;29;20809;-90
2022/03/22 06:18:18;;;;;;;21.33;12.38;;;0.10;99.90;;;;;;4933797;29;20406;-88
2022/03/22 06:20:45;;;;;;;18.73;11.07;;;0.10;99.90;;;;;;4933739;29;20406;-89
2022/03/22 06:23:15;;;;;;;22.33;11.90;;;0.20;99.90;;;;;;4933707;29;20437;-89
2022/03/22 06:25:44;;;;;;;20.63;11.77;;;0.30;99.90;;;;;;4933782;29;20402;-90
2022/03/22 06:28:14;;;;;;;18.65;11.05;;;0.30;99.90;;;;;;4917966;29;20409;-88
2022/03/22 06:30:42;;;;;;;19.33;11.52;;;0.40;99.90;;;;;;4933654;29;20914;-89
2022/03/22 06:33:11;;;;;;;19.20;11.23;;;0.40;99.90;;;;;;4917927;29;20888;-89
2022/03/22 06:35:39;;;;;;;18.50;10.77;;;0.40;99.90;;;;;;4938351;29;20414;-88
2022/03/22 06:38:07;;;;;;;17.05;10.57;;;0.50;99.90;;;;;;4925105;29;20946;-87
2022/03/22 06:40:38;;;;;;;18.10;10.40;;;0.50;99.90;;;;;;4931726;29;20406;-89
2022/03/22 06:43:11;;;;;;;22.00;12.67;;;0.50;99.90;;;;;;4936530;29;20885;-88
2022/03/22 06:45:39;;;;;;;25.05;14.52;;;0.70;99.90;;;;;;4933317;29;20976;-87
2022/03/22 06:48:07;;;;;;;17.35;10.50;;;0.80;99.90;;;;;;4933509;29;20410;-88
2022/03/22 06:50:36;;;;;;;16.60;10.05;;;0.80;99.90;;;;;;4917530;29;20488;-89
2022/03/22 06:53:06;;;;;;;19.00;10.55;;;0.90;99.90;;;;;;4944962;29;20416;-87
2022/03/22 06:55:34;;;;;;;23.43;13.63;;;0.90;99.90;;;;;;4936562;29;20432;-89
2022/03/22 06:58:03;;;;;;;20.30;12.50;;;1.00;99.90;;;;;;4936817;29;20491;-89
2022/03/22 07:00:32;;;;;;;24.75;16.38;;;1.10;99.90;;;;;;4936582;29;20949;-88
2022/03/22 07:03:01;;;;;;;25.35;17.23;;;1.20;99.90;;;;;;4952162;29;20410;-88
2022/03/22 07:05:30;;;;;;;24.10;16.15;;;1.30;99.90;;;;;;4927020;29;20477;-88
2022/03/22 07:07:58;;;;;;;27.40;20.33;;;1.30;99.90;;;;;;4932119;29;20420;-88
2022/03/22 07:10:26;;;;;;;28.65;20.88;;;1.40;99.90;;;;;;4950171;29;20406;-88
2022/03/22 07:13:05;;;;;;;27.98;20.23;;;1.50;99.90;;;;;;4936538;29;20959;-88
2022/03/22 07:15:35;;;;;;;25.80;19.05;;;1.50;99.90;;;;;;4917808;29;20864;-89
2022/03/22 07:18:06;;;;;;;25.05;16.60;;;1.60;99.90;;;;;;4917680;29;20420;-89
2022/03/22 07:20:35;;;;;;;23.93;16.50;;;1.70;99.90;;;;;;4917478;29;20913;-90
2022/03/22 07:23:03;;;;;;;24.75;15.90;;;1.70;99.90;;;;;;4925746;29;20406;-89
2022/03/22 07:25:33;;;;;;;26.23;17.80;;;1.80;99.90;;;;;;4934386;29;20416;-89
2022/03/22 07:28:01;;;;;;;28.40;19.33;;;1.80;99.90;;;;;;4920820;29;20413;-88
2022/03/22 07:30:29;;;;;;;30.98;20.63;;;1.90;99.90;;;;;;4936577;29;20398;-88
2022/03/22 07:32:57;;;;;;;28.70;19.02;;;2.00;99.90;;;;;;4938026;29;20389;-87
2022/03/22 07:35:25;;;;;;;28.77;19.50;;;2.10;99.90;;;;;;4920753;29;20494;-88
2022/03/22 07:37:59;;;;;;;26.63;17.77;;;2.10;99.90;;;;;;4936486;29;20410;-89
2022/03/22 07:40:27;;;;;;;23.80;15.52;;;2.20;99.90;;;;;;4920801;29;20895;-88
2022/03/22 07:42:55;;;;;;;22.73;14.95;;;2.30;99.90;;;;;;4937252;29;20485;-88
2022/03/22 07:45:22;;;;;;;23.17;14.90;;;2.30;99.90;;;;;;4939718;29;20409;-88
2022/03/22 07:47:50;;;;;;;24.63;14.55;;;2.40;99.90;;;;;;4939584;29;20408;-87
2022/03/22 07:53:07;;;;;;;26.58;18.10;;;2.50;99.90;;;;;;4955378;29;20471;-88
2022/03/22 07:55:42;;;;;;;28.20;19.00;;;2.60;99.90;;;;;;4955350;29;20403;-87
2022/03/22 07:58:11;;;;;;;26.05;18.52;;;2.60;99.90;;;;;;4936115;29;20397;-88
2022/03/22 08:00:41;;;;;;;26.58;18.55;;;2.70;99.90;;;;;;4935783;29;20410;-88
2022/03/22 08:03:15;;;;;;;26.25;18.05;;;2.70;99.90;;;;;;4941343;29;20480;-88
2022/03/22 08:05:47;;;;;;;27.00;17.45;;;2.80;99.90;;;;;;4954993;29;20880;-88
2022/03/22 08:08:15;;;;;;;25.02;16.42;;;2.80;99.90;;;;;;4955077;29;20487;-87
2022/03/22 08:11:01;;;;;;;24.92;16.55;;;2.80;99.90;;;;;;4939944;29;20394;-88
2022/03/22 08:13:29;;;;;;;25.58;15.55;;;2.90;99.90;;;;;;4936898;28;20398;-88
2022/03/22 08:15:56;;;;;;;25.55;15.25;;;3.00;99.90;;;;;;4935853;29;20485;-89
2022/03/22 08:18:24;;;;;;;21.45;13.10;;;3.00;99.90;;;;;;4936762;29;20394;-87
2022/03/22 08:20:52;;;;;;;23.05;13.75;;;3.10;99.90;;;;;;4920068;29;20425;-89
2022/03/22 08:23:20;;;;;;;20.90;12.27;;;3.10;99.90;;;;;;4919991;29;20416;-88
2022/03/22 08:25:50;;;;;;;20.50;12.17;;;3.10;99.90;;;;;;4935662;29;20402;-88
2022/03/22 08:28:19;;;;;;;22.05;12.88;;;3.20;99.90;;;;;;4919727;29;20413;-88
2022/03/22 08:30:46;;;;;;;22.55;12.55;;;3.20;99.90;;;;;;4935568;29;20394;-87
2022/03/22 08:33:15;;;;;;;22.08;12.45;;;3.30;99.90;;;;;;4919640;29;20402;-88
2022/03/22 08:35:47;;;;;;;19.08;11.55;;;3.30;99.90;;;;;;4919898;29;20402;-88
2022/03/22 08:38:16;;;;;;;20.40;12.00;;;3.40;99.90;;;;;;4934506;29;20800;-88
2022/03/22 08:40:44;;;;;;;19.20;12.53;;;3.50;99.90;;;;;;4935424;29;20394;-88
2022/03/22 08:43:11;;;;;;;22.63;12.98;;;3.40;99.90;;;;;;4938431;29;20400;-87
2022/03/22 08:45:39;;;;;;;21.33;12.83;;;3.50;99.90;;;;;;4954719;29;20400;-87
2022/03/22 08:48:11;;;;;;;19.77;12.40;;;3.50;99.90;;;;;;4954372;29;20419;-88
2022/03/22 08:50:43;;;;;;;18.33;11.70;;;3.60;99.90;;;;;;4955649;29;20428;-89
2022/03/22 08:53:12;;;;;;;19.08;12.13;;;3.60;99.90;;;;;;4936604;29;20444;-88
2022/03/22 08:55:45;;;;;;;19.13;11.32;;;3.60;99.90;;;;;;4926002;29;20414;-87
2022/03/22 08:58:13;;;;;;;18.65;10.43;;;3.70;99.90;;;;;;4930017;29;20408;-89
2022/03/22 09:00:41;;;;;;;17.70;10.00;;;3.80;99.90;;;;;;4926233;29;20910;-88
2022/03/22 09:03:10;;;;;;;16.73;10.05;;;3.80;99.90;;;;;;4942183;29;20414;-88
2022/03/22 09:08:25;;;;;;;16.02;9.38;;;3.90;99.90;;;;;;4949418;29;20505;-86
2022/03/22 09:10:55;;;;;;;16.50;9.88;;;4.00;99.90;;;;;;4942930;29;20456;-87
2022/03/22 09:13:22;;;;;;;17.83;9.80;;;4.00;99.90;;;;;;4919186;29;20394;-87
2022/03/22 09:15:51;;;;;;;16.63;9.82;;;4.10;99.90;;;;;;4947698;29;20451;-87
2022/03/22 09:18:24;;;;;;;18.40;9.30;;;4.10;99.90;;;;;;4954048;29;20396;-88
2022/03/22 09:20:53;;;;;;;15.65;9.27;;;4.20;99.90;;;;;;4953812;29;20408;-89
2022/03/22 09:23:21;;;;;;;15.80;9.00;;;4.20;99.90;;;;;;4954160;29;20404;-87
2022/03/22 09:25:50;;;;;;;17.73;8.90;;;4.30;99.90;;;;;;4953919;29;20479;-88
2022/03/22 09:28:18;;;;;;;18.17;9.32;;;4.30;99.90;;;;;;4953580;29;20495;-88
2022/03/22 09:30:48;;;;;;;16.50;9.20;;;4.40;99.90;;;;;;4953366;29;20408;-87
2022/03/22 09:33:17;;;;;;;15.63;8.88;;;4.40;99.90;;;;;;4953451;29;20839;-87
2022/03/22 09:35:47;;;;;;;15.93;8.90;;;4.40;99.90;;;;;;4953453;29;20404;-87
2022/03/22 09:38:16;;;;;;;14.93;8.57;;;4.50;99.90;;;;;;4953472;29;20400;-87
2022/03/22 09:40:44;;;;;;;17.27;8.98;;;4.60;99.90;;;;;;4953462;29;20400;-86
2022/03/22 09:43:12;;;;;;;17.52;9.00;;;4.60;99.90;;;;;;4953264;29;20701;-87
2022/03/22 09:45:45;;;;;;;14.35;8.20;;;4.60;99.90;;;;;;4953381;29;20400;-87
2022/03/22 09:48:16;;;;;;;14.38;8.13;;;4.70;99.90;;;;;;4952879;28;20420;-87
2022/03/22 09:53:31;;;;;;;13.70;8.00;;;4.80;99.90;;;;;;4954415;29;20393;-88
2022/03/22 09:55:58;;;;;;;13.45;7.75;;;4.90;99.90;;;;;;4954323;29;20399;-87
2022/03/22 09:58:26;;;;;;;11.90;7.50;;;5.20;99.90;;;;;;4952912;28;20436;-85
2022/03/22 10:00:54;;;;;;;10.98;6.30;;;5.10;99.90;;;;;;4953143;29;20686;-85
2022/03/22 10:03:22;;;;;;;12.40;6.57;;;5.60;99.90;;;;;;4953057;29;20423;-85
2022/03/22 10:06:02;;;;;;;15.43;6.97;;;5.80;99.90;;;;;;4954032;28;20404;-84
2022/03/22 10:08:30;;;;;;;12.68;7.03;;;5.90;99.90;;;;;;4952840;29;20539;-86
2022/03/22 10:11:03;;;;;;;10.57;6.30;;;5.90;99.90;;;;;;4953123;29;20451;-86
2022/03/22 10:13:33;;;;;;;13.98;6.57;;;5.90;99.90;;;;;;4954112;28;20392;-85
2022/03/22 10:16:03;;;;;;;11.88;6.90;;;6.00;99.90;;;;;;4953988;28;20395;-85
2022/03/22 10:18:35;;;;;;;10.93;6.40;;;5.90;99.90;;;;;;4953753;28;20399;-84
2022/03/22 10:21:04;;;;;;;8.43;4.10;;;5.90;99.90;;;;;;4950729;29;21391;-84
2022/03/22 10:23:33;;;;;;;7.20;3.80;;;5.80;99.90;;;;;;4932909;29;20493;-84
2022/03/22 10:26:06;;;;;;;8.10;4.07;;;6.40;99.90;;;;;;4942638;29;20400;-84
2022/03/22 10:28:35;;;;;;;9.88;3.95;;;6.50;99.90;;;;;;4952081;29;20435;-84
2022/03/22 10:31:03;;;;;;;9.65;4.50;;;6.90;99.90;;;;;;4937539;29;20394;-84
2022/03/22 10:33:31;;;;;;;7.75;4.03;;;7.00;99.90;;;;;;4933036;29;20757;-84
2022/03/22 10:35:59;;;;;;;7.53;3.92;;;6.90;99.90;;;;;;4934130;29;20918;-84
2022/03/22 10:38:26;;;;;;;8.68;3.88;;;7.10;99.90;;;;;;4938304;29;20823;-84
2022/03/22 10:40:54;;;;;;;8.82;3.80;;;7.40;99.90;;;;;;4953233;28;20420;-85
2022/03/22 10:43:26;;;;;;;7.70;3.83;;;7.40;99.90;;;;;;4952044;29;20504;-84
2022/03/22 10:46:04;;;;;;;8.98;4.10;;;7.30;99.90;;;;;;4936304;29;20407;-85
2022/03/22 10:48:38;;;;;;;8.13;3.90;;;7.30;99.90;;;;;;4951893;29;20412;-84
2022/03/22 10:51:06;;;;;;;8.40;3.90;;;7.60;99.90;;;;;;4953093;28;20475;-84
2022/03/22 10:53:35;;;;;;;6.32;3.65;;;7.50;99.90;;;;;;4936072;29;20403;-85
2022/03/22 10:56:07;;;;;;;6.72;3.80;;;7.70;99.90;;;;;;4941957;29;20421;-84
2022/03/22 10:58:35;;;;;;;7.53;4.03;;;8.20;99.90;;;;;;4932876;29;20488;-85
2022/03/22 11:01:06;;;;;;;8.75;4.10;;;8.10;99.90;;;;;;4934836;29;20896;-85
2022/03/22 11:03:36;;;;;;;7.93;4.18;;;8.10;99.90;;;;;;4936613;29;20398;-84
2022/03/22 11:06:04;;;;;;;9.98;3.95;;;8.10;99.90;;;;;;4936486;29;20425;-85
2022/03/22 11:08:32;;;;;;;9.05;3.90;;;8.20;99.90;;;;;;4936379;29;20892;-85
2022/03/22 11:11:00;;;;;;;9.15;4.28;;;8.50;99.90;;;;;;4937588;29;20396;-85
2022/03/22 11:13:30;;;;;;;7.60;3.67;;;8.60;99.90;;;;;;4936415;29;20805;-85
2022/03/22 11:15:59;;;;;;;8.27;3.85;;;8.60;99.90;;;;;;4936447;29;20971;-85
2022/03/22 11:18:29;;;;;;;11.52;4.18;;;8.50;99.90;;;;;;4936325;29;20397;-85
2022/03/22 11:21:03;;;;;;;7.38;3.70;;;8.80;99.90;;;;;;4941904;29;20766;-85
2022/03/22 11:23:33;;;;;;;6.78;3.70;;;8.80;99.90;;;;;;4951106;29;20408;-85
2022/03/22 11:26:27;;;;;;;9.25;3.88;;;8.90;99.90;;;;;;4949971;29;20847;-85
2022/03/22 11:28:55;;;;;;;7.70;3.47;;;9.00;99.90;;;;;;4949258;29;20421;-85
2022/03/22 11:31:26;;;;;;;8.82;3.58;;;9.10;99.90;;;;;;4945353;29;20409;-84
2022/03/22 11:34:11;;;;;;;7.35;3.80;;;9.00;99.90;;;;;;4946456;29;20827;-85
2022/03/22 11:36:45;;;;;;;9.33;3.50;;;9.10;99.90;;;;;;4942799;29;20467;-85
2022/03/22 11:42:15;;;;;;;6.25;3.45;;;9.30;99.90;;;;;;4955197;29;20435;-85
2022/03/22 11:42:25;;;;;;;7.80;3.88;;;9.30;99.90;;;;;;4956402;28;20400;-85
2022/03/22 11:44:58;;;;;;;6.68;3.25;;;9.40;99.90;;;;;;4955060;29;20404;-85
2022/03/22 11:47:44;;;;;;;7.57;3.40;;;9.40;99.90;;;;;;4955044;29;20399;-85
2022/03/22 11:50:16;;;;;;;6.75;2.92;;;9.60;99.90;;;;;;4956289;28;20391;-84
2022/03/22 11:52:46;;;;;;;6.78;3.22;;;9.60;99.90;;;;;;4956205;28;20406;-85
2022/03/22 11:55:19;;;;;;;7.40;3.58;;;9.60;99.90;;;;;;4939068;29;20752;-85
2022/03/22 11:57:47;;;;;;;7.63;2.97;;;9.80;99.90;;;;;;4954759;29;20483;-85
2022/03/22 12:00:21;;;;;;;6.90;3.10;;;9.80;99.90;;;;;;4951139;29;20967;-85
2022/03/22 12:02:54;;;;;;;6.40;3.10;;;9.80;99.90;;;;;;4948223;29;20398;-85
2022/03/22 12:05:23;;;;;;;7.37;3.10;;;9.70;99.90;;;;;;4951592;29;20453;-85
2022/03/22 12:07:52;;;;;;;8.00;3.33;;;10.00;99.90;;;;;;4935493;29;20406;-85
2022/03/22 12:10:21;;;;;;;6.95;2.75;;;9.80;99.90;;;;;;4935513;29;20402;-85
2022/03/22 12:12:50;;;;;;;6.95;3.05;;;10.00;99.90;;;;;;4934021;29;20402;-85
2022/03/22 12:15:20;;;;;;;6.35;3.25;;;10.20;99.90;;;;;;4936772;29;20402;-85
2022/03/22 12:17:48;;;;;;;7.03;3.13;;;10.10;99.90;;;;;;4935658;29;20405;-85
2022/03/22 12:20:21;;;;;;;6.55;2.63;;;10.20;99.90;;;;;;4936644;29;20433;-85
2022/03/22 12:23:00;;;;;;;6.13;2.33;;;10.50;99.90;;;;;;4936572;29;20405;-85
2022/03/22 12:25:36;;;;;;;10.30;2.70;;;10.50;99.90;;;;;;4936519;29;20398;-86
2022/03/22 12:28:09;;;;;;;7.47;2.95;;;10.50;99.90;;;;;;4935283;29;20781;-85
2022/03/22 12:30:39;;;;;;;5.40;2.70;;;10.60;99.90;;;;;;4935193;29;20417;-85
2022/03/22 12:33:14;;;;;;;5.65;2.80;;;10.70;99.90;;;;;;4936718;29;20394;-85
2022/03/22 12:35:43;;;;;;;5.75;3.40;;;10.80;99.90;;;;;;4935064;29;20461;-85
2022/03/22 12:38:11;;;;;;;8.27;3.20;;;10.80;99.90;;;;;;4936304;29;20431;-85
2022/03/22 12:40:43;;;;;;;6.27;3.20;;;10.80;99.90;;;;;;4919703;29;20947;-86
2022/03/22 12:43:13;;;;;;;5.65;2.70;;;10.80;99.90;;;;;;4935099;29;20405;-85
2022/03/22 12:45:46;;;;;;;6.00;2.90;;;10.90;99.90;;;;;;4934958;29;20477;-86
2022/03/22 12:48:19;;;;;;;7.93;2.67;;;11.00;99.90;;;;;;4935993;29;20413;-85
2022/03/22 12:50:48;;;;;;;8.02;2.50;;;11.10;99.90;;;;;;4950437;29;20413;-85
2022/03/22 12:53:15;;;;;;;4.10;2.40;;;11.10;99.90;;;;;;4934632;29;20834;-85
2022/03/22 12:55:43;;;;;;;7.00;2.67;;;11.20;99.90;;;;;;4934548;29;20414;-85
2022/03/22 12:58:12;;;;;;;4.82;2.53;;;11.10;99.90;;;;;;4934495;29;20493;-85
2022/03/22 13:00:41;;;;;;;5.45;2.50;;;11.20;99.90;;;;;;4920125;29;20422;-86
2022/03/22 13:03:16;;;;;;;5.88;2.70;;;11.10;99.90;;;;;;4935962;29;20404;-85
2022/03/22 13:05:51;;;;;;;4.70;2.70;;;11.30;99.90;;;;;;4934331;29;20402;-85
2022/03/22 13:08:21;;;;;;;5.00;2.45;;;11.30;99.90;;;;;;4934259;29;20438;-85
2022/03/22 13:16:29;;;;;;;5.70;2.40;;;11.40;99.40;;;;;;4935814;29;20418;-85
2022/03/22 13:18:58;;;;;;;5.38;2.33;;;11.50;99.90;;;;;;4937055;29;20432;-85
2022/03/22 13:21:30;;;;;;;5.25;2.30;;;11.40;99.90;;;;;;4951286;29;20416;-86
2022/03/22 13:24:05;;;;;;;6.28;2.50;;;11.40;98.90;;;;;;4956818;28;20465;-86
2022/03/22 13:26:33;;;;;;;6.60;2.30;;;11.50;99.90;;;;;;4949309;29;20511;-86
2022/03/22 13:29:20;;;;;;;6.45;2.63;;;11.60;99.90;;;;;;4948970;29;20414;-86
2022/03/22 13:32:05;;;;;;;6.97;2.40;;;11.80;99.10;;;;;;4954202;28;20396;-86